CheckWX is a tool to help pilots better visualize weather data.  It is not intended as a substitute for an official pre-flight weather briefing.

02:12:40 UTC

UTST TAF
Termez Airport
Termez, Uzbekistan
TAF UTST 222300Z 2300/2324 24008G18KT 6000 SCT060CB BKN100 TEMPO 2300/2311 VRB23G33KT 2400 -SHRA SQ -DS BKN005 BKN050CB OVC100 PROB40 TEMPO 2303/2311 TS

Apr-23@
00:00 UTC

Apr-23 @ 00:00 UTC

Apr-24@
00:00 UTC

Apr-24 @ 00:00 UTC

TAF UTST 222300Z 2300/2324 24008G18KT 6000 SCT060CB BKN100
Wind
  • 240° at 8 KTS
  • {Gusting to 18 KTS
Cloud Levels
  • Scattered at 6,000' AGL
  • Broken at 10,000' AGL

Apr-23@
00:00 UTC

Apr-23 @ 00:00 UTC

Apr-23@
11:00 UTC

Apr-23 @ 11:00 UTC

TEMPO 2300/2311 VRB23G33KT 2400 -SHRA SQ -DS BKN005 BKN050CB OVC100

Temporary

Temporary Changes expected for less than half the time period

Wind
  • Variable at 23 KTS
  • {Gusting to 33 KTS
Conditions
Light Rain, Squalls, Light Duststorm
Cloud Levels
  • Broken at 500' AGL
  • Broken at 5,000' AGL
  • Overcast at 10,000' AGL

Apr-23@
03:00 UTC

Apr-23 @ 03:00 UTC

Apr-23@
11:00 UTC

Apr-23 @ 11:00 UTC

PROB40 TEMPO 2303/2311 TS

Temporary - 40% Likelihood

Temporary - 40% Likelihood during this time.

Conditions
Thunderstorm